»·PEaware :: N335AK KGUC-KSLC

N335AK :: KGUC-KSLC

FLIGHT INFORMATION

Flight Status: Arrived
Operator: Privately registered:
United States
More flights under this callsign
Pilot: Gabor H. (24209)
Aircraft: Unknown
(EPIC)
More flights by this aircraft type
Origin: KGUC Gunnison Co
United States
Destination: KSLC Salt Lake City Intl
United States
More flights between these airports :: More routes between these airports
Route: +JNC J12 HELPR SPANE7
File this flight plan on PilotEdge
Remarks:
Altitude:
(Current/Filed)
26,000ft
Speed:
(Current/Filed)
325kts
Departed: 15-Nov-20 08:31 AM
Arrived: 15-Nov-20 09:46 AM
Distance/Time
Traveled:
268nm/1:15
Distance/Time
To Go:
Arrived

Flight Plot

Page will automatically refresh every two minutes.

Flight plan parsing failed; only flown route is shown


Map Options




Map Legend


Flown Route
Filed Route
Departure Airport
Arrival Airport
Navaid (VOR, NDB)
Fix

Horizontal Profiles

Position Reports

Time Latitude Longitude Heading Altitude Ground
Speed
15-Nov-20 08:20 38.535076 -106.941289 253 7662ft 0kts
15-Nov-20 08:21 38.535076 -106.941289 253 7662ft 0kts
15-Nov-20 08:22 38.535076 -106.941289 253 7662ft 0kts
15-Nov-20 08:23 38.535076 -106.941289 253 7662ft 0kts
15-Nov-20 08:24 38.534855 -106.941869 213 7660ft 14kts
15-Nov-20 08:25 38.534929 -106.939193 74 7664ft 6kts
15-Nov-20 08:26 38.536146 -106.934023 71 7667ft 22kts
15-Nov-20 08:27 38.537583 -106.927938 76 7668ft 10kts
15-Nov-20 08:28 38.538533 -106.923683 70 7671ft 14kts
15-Nov-20 08:29 38.539661 -106.918941 73 7673ft 28kts
15-Nov-20 08:30 38.539555 -106.914484 238 7675ft 15kts
15-Nov-20 08:31 38.529161 -106.954478 251 8856ft 176kts
15-Nov-20 08:32 38.512984 -107.024945 251 11146ft 233kts
15-Nov-20 08:32 38.497535 -107.092419 251 13212ft 241kts
15-Nov-20 08:34 38.475661 -107.187471 251 16130ft 238kts
15-Nov-20 08:34 38.474241 -107.260587 290 16510ft 282kts
15-Nov-20 08:36 38.516750 -107.369801 292 16487ft 301kts
15-Nov-20 08:36 38.547892 -107.449598 291 16985ft 288kts
15-Nov-20 08:38 38.586212 -107.548185 290 19261ft 247kts
15-Nov-20 08:38 38.610871 -107.611852 290 20889ft 235kts
15-Nov-20 08:39 38.638811 -107.684082 289 22873ft 218kts
15-Nov-20 08:41 38.668486 -107.760984 290 25211ft 196kts
15-Nov-20 08:41 38.687976 -107.811677 290 26413ft 197kts
15-Nov-20 08:43 38.719770 -107.894286 291 26426ft 239kts
15-Nov-20 08:43 38.745078 -107.960229 291 26428ft 252kts
15-Nov-20 08:44 38.776456 -108.042243 292 26429ft 259kts
15-Nov-20 08:45 38.808340 -108.125823 292 26427ft 261kts
15-Nov-20 08:46 38.840325 -108.209899 291 26426ft 262kts
15-Nov-20 08:47 38.872255 -108.294068 292 26415ft 262kts
15-Nov-20 08:48 38.904190 -108.378508 292 26391ft 261kts
15-Nov-20 08:49 38.935893 -108.462539 292 26371ft 259kts
15-Nov-20 08:50 38.967123 -108.545578 293 26365ft 256kts
15-Nov-20 08:51 38.997993 -108.627860 293 26363ft 253kts
15-Nov-20 08:52 39.028559 -108.709562 293 26376ft 251kts
15-Nov-20 08:53 39.058937 -108.790853 294 26373ft 250kts
15-Nov-20 08:54 39.091142 -108.870414 295 26373ft 250kts
15-Nov-20 08:55 39.123372 -108.950007 295 26378ft 250kts
15-Nov-20 08:56 39.155487 -109.029534 295 26375ft 250kts
15-Nov-20 08:57 39.187503 -109.108990 295 26374ft 249kts
15-Nov-20 08:58 39.219477 -109.188570 296 26374ft 248kts
15-Nov-20 08:59 39.251107 -109.267458 296 26366ft 247kts
15-Nov-20 09:00 39.282721 -109.346556 296 26356ft 247kts
15-Nov-20 09:01 39.314181 -109.425461 296 26345ft 246kts
15-Nov-20 09:02 39.345561 -109.504361 296 26341ft 246kts
15-Nov-20 09:03 39.376811 -109.583147 296 26339ft 246kts
15-Nov-20 09:04 39.407954 -109.661887 295 26350ft 245kts
15-Nov-20 09:05 39.439143 -109.740911 295 26352ft 247kts
15-Nov-20 09:06 39.470518 -109.820609 295 26350ft 247kts
15-Nov-20 09:07 39.501864 -109.900445 295 26349ft 247kts
15-Nov-20 09:08 39.533058 -109.980101 295 26347ft 247kts
15-Nov-20 09:09 39.564338 -110.060193 295 26346ft 247kts
15-Nov-20 09:10 39.595370 -110.139854 295 26344ft 247kts
15-Nov-20 09:11 39.626391 -110.219714 295 26343ft 246kts
15-Nov-20 09:12 39.657255 -110.299367 295 26341ft 246kts
15-Nov-20 09:13 39.687973 -110.378854 295 26340ft 246kts
15-Nov-20 09:14 39.719950 -110.461803 295 25264ft 272kts
15-Nov-20 09:15 39.754553 -110.551864 295 24364ft 273kts
15-Nov-20 09:16 39.787560 -110.638059 295 24363ft 260kts
15-Nov-20 09:17 39.819745 -110.722339 294 24376ft 257kts
15-Nov-20 09:18 39.851637 -110.806080 294 24375ft 257kts
15-Nov-20 09:19 39.883339 -110.889561 294 24374ft 256kts
15-Nov-20 09:20 39.915054 -110.973311 294 24372ft 257kts
15-Nov-20 09:21 39.946769 -111.057299 294 24371ft 258kts
15-Nov-20 09:22 39.979307 -111.143718 294 23472ft 283kts
15-Nov-20 09:23 40.015391 -111.239828 294 21854ft 302kts
15-Nov-20 09:24 40.052562 -111.339144 294 20231ft 301kts
15-Nov-20 09:25 40.089158 -111.437290 294 18645ft 301kts
15-Nov-20 09:26 40.125486 -111.534997 294 17108ft 290kts
15-Nov-20 09:27 40.159658 -111.627320 294 17042ft 283kts
15-Nov-20 09:28 40.194295 -111.721126 293 17049ft 287kts
15-Nov-20 09:29 40.229033 -111.815492 293 17048ft 288kts
15-Nov-20 09:30 40.263825 -111.910345 293 17047ft 288kts
15-Nov-20 09:31 40.326364 -111.979330 324 15911ft 306kts
15-Nov-20 09:32 40.399428 -112.034609 325 14410ft 303kts
15-Nov-20 09:33 40.482744 -112.053420 352 12901ft 309kts
15-Nov-20 09:34 40.567025 -112.058452 352 11386ft 292kts
15-Nov-20 09:35 40.647620 -112.061747 356 9876ft 291kts
15-Nov-20 09:36 40.728187 -112.063266 356 8991ft 284kts
15-Nov-20 09:37 40.807245 -112.065615 356 8332ft 295kts
15-Nov-20 09:38 40.885176 -112.071095 356 7011ft 262kts
15-Nov-20 09:39 40.948681 -112.070442 41 6999ft 213kts
15-Nov-20 09:40 40.943506 -112.003882 126 6271ft 208kts
15-Nov-20 09:41 40.906363 -111.959643 190 5991ft 161kts
15-Nov-20 09:42 40.863545 -111.962064 178 5523ft 164kts
15-Nov-20 09:43 40.825862 -111.962083 176 4813ft 103kts
15-Nov-20 09:44 40.796796 -111.962029 177 4227ft 84kts
15-Nov-20 09:45 40.791474 -111.960599 92 4219ft 5kts
15-Nov-20 09:46 40.785734 -111.960048 178 4219ft 31kts
15-Nov-20 09:47 40.778420 -111.960438 210 4223ft 17kts
15-Nov-20 09:48 40.775993 -111.960584 179 4223ft 7kts
15-Nov-20 09:49 40.775355 -111.959547 176 4223ft 0kts
15-Nov-20 09:50 40.775355 -111.959547 176 4223ft 0kts
15-Nov-20 09:51 40.775355 -111.959547 176 4223ft 0kts

Navigation Log

Ident Type
Flight plan parsing failed, navigation log unavailable